Milton, PA (17847)

09:11 PM EDT del 28 Agosto 2014 (GMT -0400)
Windsor at Lewisburg | Change Station
CLOSE
Current Station
Stazione meteo personale
Location: Lewisburg, PA
Altitudine: 545 ft
Stazioni meteo nelle vicinanze

Alt. 545 ft 40.94 °N, 76.89 °W | Updated 8 seconds ago

Sereno
Sereno
66.2 °F
Sembra 66.2 °F
N
6.0
Vento Variabile Vento da NNE
Gusts 6.0 mph

Oggi
Massima -- | Minima -- °F
--% Possibilità di precip.
Ieri
Massima -- | Minima -- °F
Precip. -- in
6:30 AM 7:46 PM
Luna crescente, 11% visible
Pressione 30.08 in
Visibilità 10.0 miglia
Nuvole Sereno
Punto di rugiada 46 °F
Umidità 48%
Piovosità -999.00 in
Spessore del manto nevoso Non disponibile.
Raggi UV 0 fuori da 12
Polline 9.20 fuori da 12
Qualità dell'aria Non disponibile.
Flu Activity Non disponibile.
METAR KSEG 290053Z AUTO 35004KT 10SM CLR 16/13 A3008 RMK AO2 SLP185 T01610128

More Conditions Fewer Conditions

Pressione 30.08 in
Visibilità 10.0 miglia
Nuvole Sereno
Punto di rugiada 46 °F
Umidità 48%
Piovosità -999.00 in
Spessore del manto nevoso Non disponibile.
Raggi UV 0 fuori da 12
Polline 9.20 fuori da 12
Qualità dell'aria Non disponibile.
Flu Activity Non disponibile.
METAR KSEG 290053Z AUTO 35004KT 10SM CLR 16/13 A3008 RMK AO2 SLP185 T01610128

More Conditions Fewer Conditions

10-Day Weather Forecast

Almanac

Astronomia

Aug. 28, 2014 Alba Tramonto
Ora attuale 06:30 EDT 19:46 EDT
Crepuscolo civile 06:01 EDT 20:14 EDT
Crepuscolo nautico 05:27 EDT 20:48 EDT
Crepuscolo astronomico 04:51 EDT 21:24 EDT
Luna 09:22 EDT (8/28) 21:07 EDT (8/28)
Estensione della luce visibile 14h 13m
Lunghezza del giorno
13h 16m
Tomorrow will be 2m 35s shorter.
Luna crescente, 11% of the Moon is Illuminated
Oggi
Luna crescente
Set 2
Primo quarto
Set 8
Luna piena
Set 15
Ultimo quarto
Set 24
Nuovo

Gli estremi di oggi

State Highs State Lows

Community

WunderPhotos

Upload Photos

1,748,126 foto caricate!

Nearby

Profondità neve

Stazione Profondità Altitudine
Non sono state evidenziate nuove nevicate

Attività sismica

Città  Distanza Mag. Data & Ora
Non sono state riportate attività sismiche nelle vicinanze.
Minimo Magnitudo Mostrato è 2.5.

Temperature delle acque costiere

Località Temperatura
Nessun dato dalle stazioni

Stazioni meteo nelle vicinanze